createdAt,value
2022-09-27T00:02:03.818Z,1.90
2022-09-27T00:04:30.413Z,1.30
2022-09-27T00:06:56.761Z,1.38
2022-09-27T00:09:23.187Z,1.63
2022-09-27T00:11:50.265Z,1.30
2022-09-27T00:14:17.741Z,1.27
2022-09-27T00:16:44.634Z,1.63
2022-09-27T00:19:19.058Z,1.65
2022-09-27T00:21:46.851Z,1.48
2022-09-27T00:24:19.338Z,1.70
2022-09-27T00:26:47.088Z,1.58
2022-09-27T00:29:15.572Z,1.20
2022-09-27T00:31:42.527Z,1.35
2022-09-27T00:34:18.065Z,1.45
2022-09-27T00:36:44.515Z,1.30
2022-09-27T00:39:10.997Z,1.17
2022-09-27T00:41:38.127Z,1.30
2022-09-27T00:44:27.369Z,1.58
2022-09-27T00:47:17.636Z,1.42
2022-09-27T00:49:50.732Z,1.30
2022-09-27T00:52:24.484Z,1.27
2022-09-27T00:54:57.618Z,1.80
2022-09-27T00:57:24.119Z,1.40
2022-09-27T00:59:59.080Z,1.27
2022-09-27T01:02:25.763Z,1.63
2022-09-27T01:04:53.501Z,1.48
2022-09-27T01:07:20.201Z,1.08
2022-09-27T01:09:46.874Z,1.38
2022-09-27T01:12:36.613Z,1.95
2022-09-27T01:15:15.625Z,1.48
2022-09-27T01:18:06.296Z,1.20
2022-09-27T01:20:35.685Z,1.60
2022-09-27T01:23:31.536Z,1.15
2022-09-27T01:26:18.137Z,1.08
2022-09-27T01:29:05.639Z,1.08
2022-09-27T01:31:34.838Z,1.30
2022-09-27T01:34:26.067Z,0.90
2022-09-27T01:37:10.329Z,0.90
2022-09-27T01:39:50.065Z,0.70
2022-09-27T01:42:34.496Z,1.08
2022-09-27T01:45:09.811Z,0.70
2022-09-27T01:47:47.061Z,0.88
2022-09-27T01:50:42.357Z,1.23
2022-09-27T01:53:18.795Z,1.05
2022-09-27T01:55:48.072Z,1.20
2022-09-27T01:58:24.224Z,1.00
2022-09-27T02:00:54.128Z,1.20
2022-09-27T02:03:25.081Z,1.50
2022-09-27T02:05:55.656Z,1.98
2022-09-27T02:08:53.619Z,1.25
2022-09-27T02:11:20.069Z,1.48
2022-09-27T02:14:03.300Z,1.17
2022-09-27T02:16:48.186Z,1.38
2022-09-27T02:19:40.899Z,1.20
2022-09-27T02:22:17.739Z,1.48
2022-09-27T02:24:54.682Z,1.40
2022-09-27T02:27:26.691Z,1.00
2022-09-27T02:30:06.136Z,1.40
2022-09-27T02:32:33.127Z,1.30
2022-09-27T02:35:03.814Z,1.65
2022-09-27T02:37:30.604Z,1.73
2022-09-27T02:39:57.959Z,2.25
2022-09-27T02:42:25.918Z,1.50
2022-09-27T02:44:52.350Z,1.75
2022-09-27T02:47:55.060Z,1.90
2022-09-27T02:50:44.231Z,1.80
2022-09-27T02:53:22.011Z,1.92
2022-09-27T02:56:14.198Z,1.98
2022-09-27T02:58:49.056Z,2.10
2022-09-27T03:01:44.056Z,1.85
2022-09-27T03:04:33.653Z,2.20
2022-09-27T03:07:00.648Z,2.47
2022-09-27T03:09:44.832Z,2.30
2022-09-27T03:12:12.095Z,2.38
2022-09-27T03:14:38.496Z,2.47
2022-09-27T03:17:04.931Z,2.20
2022-09-27T03:19:31.346Z,2.47
2022-09-27T03:21:57.745Z,2.28
2022-09-27T03:24:24.222Z,3.35
2022-09-27T03:26:50.639Z,2.65
2022-09-27T03:29:17.112Z,2.60
2022-09-27T03:31:43.497Z,3.03
2022-09-27T03:34:09.909Z,2.33
2022-09-27T03:36:36.479Z,2.67
2022-09-27T03:39:03.114Z,2.83
2022-09-27T03:41:29.560Z,2.70
2022-09-27T03:43:59.840Z,3.15
2022-09-27T03:46:26.704Z,2.80
2022-09-27T03:48:53.146Z,3.50
2022-09-27T03:51:19.520Z,2.30
2022-09-27T03:53:45.927Z,2.75
2022-09-27T03:56:12.509Z,2.90
2022-09-27T03:58:38.858Z,3.80
2022-09-27T04:01:05.559Z,2.92
2022-09-27T04:03:32.031Z,2.72
2022-09-27T04:06:00.324Z,2.90
2022-09-27T04:08:26.722Z,2.92
2022-09-27T04:10:53.144Z,2.58
2022-09-27T04:13:19.520Z,2.90
2022-09-27T04:15:51.312Z,2.53
2022-09-27T04:18:18.619Z,2.58
2022-09-27T04:20:45.056Z,3.35
2022-09-27T04:23:11.609Z,2.80
2022-09-27T04:25:39.817Z,3.03
2022-09-27T04:28:06.444Z,2.13
2022-09-27T04:30:33.214Z,2.28
2022-09-27T04:32:59.700Z,2.70
2022-09-27T04:35:44.396Z,2.00
2022-09-27T04:38:10.769Z,2.83
2022-09-27T04:40:38.424Z,2.83
2022-09-27T04:43:04.974Z,2.60
2022-09-27T04:45:31.598Z,2.47
2022-09-27T04:47:58.092Z,4.20
2022-09-27T04:50:24.926Z,1.77
2022-09-27T04:52:53.510Z,2.30
2022-09-27T04:55:21.598Z,3.15
2022-09-27T04:57:49.003Z,2.15
2022-09-27T05:00:15.920Z,2.30
2022-09-27T05:02:47.738Z,2.22
2022-09-27T05:05:15.830Z,2.28
2022-09-27T05:07:42.316Z,1.67
2022-09-27T05:10:09.777Z,2.30
2022-09-27T05:12:36.820Z,2.10
2022-09-27T05:15:03.997Z,2.42
2022-09-27T05:17:30.628Z,2.03
2022-09-27T05:19:57.002Z,2.00
2022-09-27T05:22:23.428Z,2.10
2022-09-27T05:24:49.799Z,2.22
2022-09-27T05:27:18.673Z,2.17
2022-09-27T05:29:45.559Z,1.83
2022-09-27T05:32:12.739Z,1.83
2022-09-27T05:34:39.326Z,2.00
2022-09-27T05:37:05.886Z,2.03
2022-09-27T05:39:32.279Z,1.90
2022-09-27T05:41:58.958Z,1.60
2022-09-27T05:44:26.026Z,1.95
2022-09-27T05:46:52.438Z,1.77
2022-09-27T05:49:20.163Z,1.92
2022-09-27T05:51:47.396Z,2.42
2022-09-27T05:54:13.871Z,2.10
2022-09-27T05:56:40.390Z,1.58
2022-09-27T05:59:06.941Z,1.40
2022-09-27T06:01:33.644Z,1.85
2022-09-27T06:04:00.165Z,2.17
2022-09-27T06:06:26.573Z,1.92
2022-09-27T06:08:53.078Z,1.80
2022-09-27T06:11:19.693Z,1.30
2022-09-27T06:13:46.059Z,1.73
2022-09-27T06:16:12.867Z,1.35
2022-09-27T06:18:39.599Z,1.50
2022-09-27T06:21:06.740Z,1.25
2022-09-27T06:23:33.645Z,1.25
2022-09-27T06:26:06.025Z,1.63
2022-09-27T06:28:35.028Z,1.40
2022-09-27T06:31:01.838Z,1.00
2022-09-27T06:33:28.703Z,1.00
2022-09-27T06:35:55.323Z,0.88
2022-09-27T06:38:23.042Z,0.93
2022-09-27T06:40:49.869Z,0.93
2022-09-27T06:43:20.979Z,0.80
2022-09-27T06:45:48.088Z,1.70
2022-09-27T06:48:17.143Z,1.65
2022-09-27T06:50:45.772Z,0.77
2022-09-27T06:53:14.576Z,0.90
2022-09-27T06:55:41.013Z,0.80
2022-09-27T06:58:28.122Z,0.82
2022-09-27T07:00:54.838Z,1.15
2022-09-27T07:03:36.558Z,0.70
2022-09-27T07:06:06.384Z,0.60
2022-09-27T07:08:33.971Z,0.60
2022-09-27T07:11:07.027Z,0.80
2022-09-27T07:13:37.104Z,0.57
2022-09-27T07:16:13.259Z,0.90
2022-09-27T07:18:49.066Z,0.80
2022-09-27T07:21:20.617Z,0.70
2022-09-27T07:23:59.272Z,0.75
2022-09-27T07:26:30.589Z,0.75
2022-09-27T07:28:57.326Z,0.80
2022-09-27T07:31:24.366Z,1.85
2022-09-27T07:33:53.560Z,0.80
2022-09-27T07:36:23.826Z,0.82
2022-09-27T07:38:58.731Z,0.90
2022-09-27T07:41:30.170Z,0.90
2022-09-27T07:43:59.866Z,1.00
2022-09-27T07:46:34.024Z,1.60
2022-09-27T07:49:00.426Z,0.98
2022-09-27T07:51:26.851Z,1.17
2022-09-27T07:53:53.350Z,0.75
2022-09-27T07:56:19.701Z,0.80
2022-09-27T07:58:46.819Z,0.88
2022-09-27T08:01:14.089Z,0.85
2022-09-27T08:03:40.625Z,1.50
2022-09-27T08:06:07.380Z,1.17
2022-09-27T08:08:34.111Z,1.60
2022-09-27T08:11:00.721Z,1.00
2022-09-27T08:13:27.111Z,1.85
2022-09-27T08:15:53.916Z,1.10
2022-09-27T08:18:22.080Z,1.02
2022-09-27T08:20:48.727Z,1.20
2022-09-27T08:23:15.132Z,1.15
2022-09-27T08:25:42.168Z,1.50
2022-09-27T08:28:09.303Z,1.77
2022-09-27T08:30:35.869Z,1.40
2022-09-27T08:33:03.262Z,1.30
2022-09-27T08:35:33.739Z,1.23
2022-09-27T08:38:01.474Z,1.63
2022-09-27T08:40:42.875Z,2.25
2022-09-27T08:43:24.277Z,1.60
2022-09-27T08:46:05.906Z,1.52
2022-09-27T08:48:33.948Z,1.88
2022-09-27T08:51:03.147Z,1.35
2022-09-27T08:53:47.723Z,1.23
2022-09-27T08:59:13.588Z,1.35
2022-09-27T09:01:41.316Z,1.65
2022-09-27T09:04:10.870Z,1.80
2022-09-27T09:06:52.630Z,2.20
2022-09-27T09:09:28.053Z,2.15
2022-09-27T09:12:18.961Z,1.88
2022-09-27T09:14:57.222Z,2.70
2022-09-27T09:17:57.322Z,2.03
2022-09-27T09:21:00.498Z,2.40
2022-09-27T09:23:52.802Z,2.53
2022-09-27T09:26:30.902Z,2.88
2022-09-27T09:29:25.599Z,3.28
2022-09-27T09:32:00.490Z,2.80
2022-09-27T09:34:37.979Z,2.20
2022-09-27T09:37:19.685Z,2.55
2022-09-27T09:39:53.010Z,1.92
2022-09-27T09:42:32.215Z,1.83
2022-09-27T09:45:41.667Z,2.10
2022-09-27T09:48:37.734Z,2.00
2022-09-27T09:51:10.531Z,1.75
2022-09-27T09:53:43.477Z,2.00
2022-09-27T09:56:18.508Z,1.88
2022-09-27T09:58:50.857Z,2.55
2022-09-27T10:01:28.725Z,2.47
2022-09-27T10:03:57.066Z,2.28
2022-09-27T10:06:26.033Z,2.35
2022-09-27T10:08:54.920Z,2.75
2022-09-27T10:11:27.551Z,2.40
2022-09-27T10:13:56.442Z,1.90
2022-09-27T10:16:24.023Z,2.40
2022-09-27T10:18:56.279Z,2.05
2022-09-27T10:21:27.982Z,2.25
2022-09-27T10:24:17.670Z,2.30
2022-09-27T10:26:47.573Z,1.90
2022-09-27T10:29:20.088Z,2.38
2022-09-27T10:31:48.533Z,2.35
2022-09-27T10:34:29.782Z,2.20
2022-09-27T10:37:17.290Z,1.95
2022-09-27T10:39:46.208Z,1.10
2022-09-27T10:42:22.982Z,1.05
2022-09-27T10:44:49.499Z,0.60
2022-09-27T10:47:22.819Z,0.77
2022-09-27T10:49:52.857Z,1.03
2022-09-27T10:52:24.280Z,0.85
2022-09-27T10:54:59.669Z,1.15
2022-09-27T10:57:28.644Z,0.80
2022-09-27T10:59:58.213Z,0.65
2022-09-27T11:02:32.128Z,0.60
2022-09-27T11:05:27.236Z,3.28
2022-09-27T11:07:55.023Z,0.57
2022-09-27T11:10:36.250Z,0.30
2022-09-27T11:13:06.899Z,0.60
2022-09-27T11:15:47.587Z,0.50
2022-09-27T11:18:48.855Z,0.32
2022-09-27T11:21:45.735Z,0.70
2022-09-27T11:24:38.628Z,0.60
2022-09-27T11:27:37.327Z,0.40
2022-09-27T11:30:23.495Z,0.50
2022-09-27T11:33:31.311Z,1.02
2022-09-27T11:36:01.850Z,1.23
2022-09-27T11:38:53.542Z,1.00
2022-09-27T11:41:33.235Z,0.80
2022-09-27T11:44:31.360Z,1.30
2022-09-27T11:47:31.063Z,0.90
2022-09-27T11:50:26.678Z,0.80
2022-09-27T11:52:59.710Z,1.13
2022-09-27T11:55:53.975Z,1.17
2022-09-27T11:58:42.527Z,1.10
2022-09-27T12:01:30.814Z,0.77
2022-09-27T12:04:15.510Z,1.00
2022-09-27T12:09:31.245Z,0.40
2022-09-27T12:12:04.738Z,0.73
2022-09-27T12:14:42.464Z,0.55
2022-09-27T12:17:18.474Z,0.73
2022-09-27T12:19:50.786Z,1.00
2022-09-27T12:22:46.707Z,0.73
2022-09-27T12:25:20.563Z,0.90
2022-09-27T12:27:56.061Z,1.27
2022-09-27T12:30:22.779Z,0.82
2022-09-27T12:32:54.966Z,1.15
2022-09-27T12:35:28.112Z,1.10
2022-09-27T12:38:09.322Z,0.98
2022-09-27T12:40:40.532Z,0.98
2022-09-27T12:43:18.710Z,1.10
2022-09-27T12:46:15.566Z,1.25
2022-09-27T12:48:52.230Z,0.95
2022-09-27T12:51:24.148Z,1.35
2022-09-27T12:54:25.240Z,0.98
2022-09-27T12:57:00.813Z,1.30
2022-09-27T12:59:52.221Z,1.40
2022-09-27T13:02:33.883Z,0.98
2022-09-27T13:05:59.957Z,1.10
2022-09-27T13:08:45.315Z,1.10
2022-09-27T13:11:36.147Z,1.50
2022-09-27T13:14:05.144Z,1.02
2022-09-27T13:16:41.214Z,1.50
2022-09-27T13:19:36.394Z,1.17
2022-09-27T13:22:04.873Z,1.20
2022-09-27T13:24:38.084Z,1.42
2022-09-27T13:27:24.364Z,1.20
2022-09-27T13:29:51.601Z,1.10
2022-09-27T13:32:19.237Z,1.27
2022-09-27T13:34:56.867Z,1.30
2022-09-27T13:37:29.519Z,0.77
2022-09-27T13:40:24.374Z,0.60
2022-09-27T13:45:32.156Z,0.52
2022-09-27T13:47:59.334Z,0.77
2022-09-27T13:50:39.670Z,0.57
2022-09-27T13:53:39.384Z,0.70
2022-09-27T13:56:26.603Z,0.80
2022-09-27T13:58:59.664Z,1.13
2022-09-27T14:01:31.577Z,0.60
2022-09-27T14:04:05.348Z,0.68
2022-09-27T14:06:41.802Z,0.50
2022-09-27T14:09:19.769Z,0.90
2022-09-27T14:11:53.518Z,0.70
2022-09-27T14:14:24.489Z,0.98
2022-09-27T14:16:51.046Z,1.30
2022-09-27T14:19:21.837Z,1.73
2022-09-27T14:21:49.208Z,1.77
2022-09-27T14:24:28.207Z,1.02
2022-09-27T14:27:17.239Z,1.10
2022-09-27T14:29:53.944Z,1.85
2022-09-27T14:32:23.500Z,1.33
2022-09-27T14:35:32.081Z,1.02
2022-09-27T14:38:07.506Z,0.70
2022-09-27T14:41:03.441Z,0.90
2022-09-27T14:43:32.934Z,0.57
2022-09-27T14:46:06.957Z,0.50
2022-09-27T14:51:21.763Z,0.60
2022-09-27T14:53:51.479Z,0.73
2022-09-27T14:56:23.691Z,0.80
2022-09-27T14:58:56.466Z,0.80
2022-09-27T15:01:24.226Z,0.70
2022-09-27T15:03:50.887Z,0.75
2022-09-27T15:06:18.053Z,0.90
2022-09-27T15:08:49.264Z,0.77
2022-09-27T15:11:19.264Z,1.02
2022-09-27T15:13:51.738Z,0.60
2022-09-27T15:16:20.643Z,0.77
2022-09-27T15:19:03.271Z,0.60
2022-09-27T15:21:29.674Z,1.10
2022-09-27T15:23:56.696Z,1.02
2022-09-27T15:26:27.492Z,0.70
2022-09-27T15:28:54.045Z,1.08
2022-09-27T15:31:35.751Z,0.93
2022-09-27T15:34:06.076Z,1.02
2022-09-27T15:36:44.314Z,0.77
2022-09-27T15:39:17.190Z,0.95
2022-09-27T15:42:02.134Z,0.75
2022-09-27T15:44:53.048Z,0.85
2022-09-27T15:47:34.544Z,0.73
2022-09-27T15:50:27.130Z,0.80
2022-09-27T15:52:58.507Z,1.05
2022-09-27T15:55:29.515Z,0.93
2022-09-27T15:58:02.886Z,0.85
2022-09-27T16:00:30.226Z,0.60
2022-09-27T16:02:56.847Z,0.40
2022-09-27T16:05:23.968Z,0.63
2022-09-27T16:07:51.427Z,1.08
2022-09-27T16:10:20.201Z,0.88
2022-09-27T16:12:47.392Z,0.80
2022-09-27T16:15:15.359Z,1.02
2022-09-27T16:17:43.576Z,1.05
2022-09-27T16:20:15.233Z,1.10
2022-09-27T16:22:41.667Z,2.47
2022-09-27T16:25:08.375Z,0.73
2022-09-27T16:27:35.098Z,1.25
2022-09-27T16:30:01.664Z,1.10
2022-09-27T16:32:28.049Z,0.98
2022-09-27T16:34:54.526Z,0.85
2022-09-27T16:37:20.961Z,0.80
2022-09-27T16:39:47.358Z,0.90
2022-09-27T16:42:14.575Z,0.90
2022-09-27T16:44:41.009Z,0.95
2022-09-27T16:47:07.502Z,1.45
2022-09-27T16:49:52.263Z,0.75
2022-09-27T16:52:18.665Z,0.63
2022-09-27T16:54:45.069Z,0.65
2022-09-27T16:57:11.475Z,1.08
2022-09-27T16:59:38.011Z,1.42
2022-09-27T17:02:05.920Z,0.88
2022-09-27T17:04:32.562Z,1.00
2022-09-27T17:06:59.011Z,1.00
2022-09-27T17:09:25.481Z,1.20
2022-09-27T17:11:51.979Z,0.90
2022-09-27T17:14:18.850Z,0.80
2022-09-27T17:16:47.119Z,0.68
2022-09-27T17:19:14.583Z,0.88
2022-09-27T17:21:41.498Z,0.88
2022-09-27T17:24:07.966Z,0.82
2022-09-27T17:26:34.458Z,0.70
2022-09-27T17:29:00.931Z,1.00
2022-09-27T17:31:28.965Z,0.98
2022-09-27T17:33:57.851Z,0.88
2022-09-27T17:36:27.375Z,0.82
2022-09-27T17:38:53.793Z,0.70
2022-09-27T17:41:25.762Z,0.80
2022-09-27T17:43:57.744Z,1.02
2022-09-27T17:46:28.261Z,1.00
2022-09-27T17:49:13.376Z,1.00
2022-09-27T17:51:41.122Z,1.00
2022-09-27T17:54:09.584Z,0.68
2022-09-27T17:56:38.279Z,0.80
2022-09-27T17:59:05.717Z,0.95
2022-09-27T18:01:32.661Z,0.65
2022-09-27T18:04:01.403Z,1.00
2022-09-27T18:06:28.396Z,0.80
2022-09-27T18:08:55.768Z,0.88
2022-09-27T18:11:28.389Z,1.10
2022-09-27T18:14:00.011Z,1.20
2022-09-27T18:16:32.970Z,1.02
2022-09-27T18:19:02.914Z,1.10
2022-09-27T18:21:31.498Z,1.23
2022-09-27T18:24:00.206Z,1.65
2022-09-27T18:26:28.984Z,1.60
2022-09-27T18:29:01.500Z,1.70
2022-09-27T18:31:28.009Z,1.42
2022-09-27T18:33:54.486Z,1.40
2022-09-27T18:36:23.113Z,1.30
2022-09-27T18:38:53.876Z,2.10
2022-09-27T18:41:22.446Z,2.00
2022-09-27T18:43:49.484Z,1.58
2022-09-27T18:46:34.959Z,1.88
2022-09-27T18:49:07.139Z,1.60
2022-09-27T18:51:37.297Z,1.10
2022-09-27T18:54:06.403Z,1.52
2022-09-27T18:56:39.198Z,1.60
2022-09-27T18:59:08.495Z,1.25
2022-09-27T19:01:41.492Z,1.67
2022-09-27T19:04:09.980Z,1.58
2022-09-27T19:06:37.702Z,1.40
2022-09-27T19:09:05.350Z,1.80
2022-09-27T19:11:33.051Z,1.10
2022-09-27T19:14:00.214Z,1.40
2022-09-27T19:16:28.713Z,1.23
2022-09-27T19:18:55.156Z,1.35
2022-09-27T19:21:28.054Z,1.00
2022-09-27T19:23:55.370Z,2.00
2022-09-27T19:26:24.674Z,0.98
2022-09-27T19:28:51.650Z,2.00
2022-09-27T19:31:22.306Z,1.85
2022-09-27T19:33:49.431Z,1.50
2022-09-27T19:36:18.062Z,1.80
2022-09-27T19:38:44.934Z,1.20
2022-09-27T19:41:14.079Z,1.35
2022-09-27T19:43:41.629Z,1.30
2022-09-27T19:46:12.401Z,1.23
2022-09-27T19:48:39.257Z,1.38
2022-09-27T19:51:06.718Z,1.13
2022-09-27T19:53:34.592Z,1.30
2022-09-27T19:56:03.694Z,1.02
2022-09-27T19:58:31.422Z,1.02
2022-09-27T20:01:06.728Z,1.00
2022-09-27T20:03:34.510Z,0.93
2022-09-27T20:06:01.906Z,1.08
2022-09-27T20:08:29.003Z,0.90
2022-09-27T20:11:06.649Z,0.95
2022-09-27T20:13:35.220Z,0.70
2022-09-27T20:16:03.396Z,0.88
2022-09-27T20:18:29.982Z,1.08
2022-09-27T20:21:02.512Z,1.02
2022-09-27T20:23:30.779Z,1.08
2022-09-27T20:26:02.183Z,0.98
2022-09-27T20:28:29.009Z,0.88
2022-09-27T20:31:00.394Z,0.95
2022-09-27T20:33:43.781Z,1.00
2022-09-27T20:36:18.655Z,0.95
2022-09-27T20:38:47.859Z,1.30
2022-09-27T20:41:17.970Z,1.00
2022-09-27T20:43:45.173Z,1.10
2022-09-27T20:46:17.064Z,1.17
2022-09-27T20:48:44.399Z,1.13
2022-09-27T20:51:14.287Z,1.30
2022-09-27T20:53:42.239Z,1.13
2022-09-27T20:56:26.723Z,1.05
2022-09-27T20:58:55.401Z,1.20
2022-09-27T21:01:23.520Z,1.15
2022-09-27T21:04:01.272Z,0.70
2022-09-27T21:06:28.547Z,0.80
2022-09-27T21:08:55.194Z,1.02
2022-09-27T21:11:24.924Z,1.17
2022-09-27T21:13:52.425Z,0.93
2022-09-27T21:16:21.854Z,0.90
2022-09-27T21:18:50.851Z,0.82
2022-09-27T21:21:18.234Z,1.17
2022-09-27T21:23:46.295Z,0.90
2022-09-27T21:26:18.222Z,1.23
2022-09-27T21:28:47.400Z,0.68
2022-09-27T21:31:21.593Z,0.98
2022-09-27T21:33:54.764Z,0.88
2022-09-27T21:36:28.941Z,0.90
2022-09-27T21:38:56.399Z,0.80
2022-09-27T21:41:24.063Z,0.73
2022-09-27T21:43:50.772Z,0.70
2022-09-27T21:46:19.527Z,0.90
2022-09-27T21:48:48.441Z,0.70
2022-09-27T21:51:18.538Z,0.70
2022-09-27T21:53:51.231Z,0.80
2022-09-27T21:56:18.946Z,0.60
2022-09-27T21:58:45.376Z,0.60
2022-09-27T22:01:18.375Z,1.33
2022-09-27T22:03:46.473Z,0.80
2022-09-27T22:06:15.977Z,0.50
2022-09-27T22:08:43.338Z,0.52
2022-09-27T22:11:12.388Z,0.68
2022-09-27T22:13:38.748Z,0.63
2022-09-27T22:16:06.848Z,0.60
2022-09-27T22:18:35.338Z,0.50
2022-09-27T22:21:03.414Z,0.70
2022-09-27T22:23:29.814Z,0.57
2022-09-27T22:26:01.453Z,0.57
2022-09-27T22:28:27.919Z,0.60
2022-09-27T22:30:54.329Z,1.25
2022-09-27T22:33:20.731Z,0.90
2022-09-27T22:35:48.576Z,0.60
2022-09-27T22:38:15.608Z,0.60
2022-09-27T22:40:43.007Z,0.40
2022-09-27T22:43:09.449Z,0.65
2022-09-27T22:45:35.929Z,0.88
2022-09-27T22:48:02.288Z,0.82
2022-09-27T22:50:28.717Z,0.70
2022-09-27T22:52:55.082Z,1.02
2022-09-27T22:55:21.419Z,0.43
2022-09-27T22:57:48.256Z,0.68
2022-09-27T23:00:14.706Z,0.93
2022-09-27T23:02:41.311Z,0.70
2022-09-27T23:05:08.149Z,0.50
2022-09-27T23:07:34.499Z,0.60
2022-09-27T23:10:00.866Z,0.40
2022-09-27T23:12:27.252Z,0.73
2022-09-27T23:14:53.625Z,1.60
2022-09-27T23:17:20.380Z,0.80
2022-09-27T23:19:46.747Z,0.55
2022-09-27T23:22:13.106Z,0.82
2022-09-27T23:24:39.430Z,0.88
2022-09-27T23:27:24.572Z,0.98
2022-09-27T23:29:50.931Z,0.60
2022-09-27T23:32:17.323Z,0.77
2022-09-27T23:34:43.742Z,0.60
2022-09-27T23:37:10.090Z,1.50
2022-09-27T23:39:36.473Z,0.75
2022-09-27T23:42:03.258Z,1.02
2022-09-27T23:44:29.648Z,0.80
2022-09-27T23:47:00.152Z,0.68
2022-09-27T23:49:28.206Z,0.93
2022-09-27T23:51:55.456Z,0.90
2022-09-27T23:54:21.905Z,0.85
2022-09-27T23:56:49.326Z,0.80
2022-09-27T23:59:16.964Z,0.55
